Time;durP1;ratioP1;P1;durP2;ratioP2;P2;SDS_P1;SDS_P2;PMS_P1;PMS_P2;Temp;Humidity;BMP_temperature;BMP_pressure;BME280_temperature;BME280_humidity;BME280_pressure;Samples;Min_cycle;Max_cycle;Signal;HPM_P1;HPM_P2
2021/01/22 00:02:07;;;;;;;34.30;20.75;;;;;;;3.46;78.43;99168.06;1628589;86;25747;-77
2021/01/22 00:04:40;;;;;;;34.20;21.82;;;;;;;3.46;78.54;99162.09;1648131;85;25811;-77
2021/01/22 00:07:07;;;;;;;37.25;21.77;;;;;;;3.48;78.52;99173.89;1677265;83;26567;-78
2021/01/22 00:09:33;;;;;;;37.42;21.05;;;;;;;3.47;78.45;99167.11;1671945;83;26746;-78
2021/01/22 00:11:59;;;;;;;38.35;20.10;;;;;;;3.44;78.37;99153.70;1648517;83;26438;-77
2021/01/22 00:14:26;;;;;;;37.13;22.98;;;;;;;3.39;78.31;99154.63;1675331;83;27011;-77
2021/01/22 00:16:52;;;;;;;42.38;21.25;;;;;;;3.39;78.35;99148.16;1676748;83;25810;-77
2021/01/22 00:19:18;;;;;;;35.08;21.93;;;;;;;3.36;78.22;99145.88;1675448;83;26517;-77
2021/01/22 00:21:44;;;;;;;37.73;20.92;;;;;;;3.32;78.22;99133.72;1675294;83;25911;-77
2021/01/22 00:24:11;;;;;;;33.65;19.87;;;;;;;3.31;78.25;99137.28;1681885;82;26500;-77
2021/01/22 00:26:37;;;;;;;38.50;20.57;;;;;;;3.30;78.36;99132.59;1693454;83;26530;-77
2021/01/22 00:29:03;;;;;;;34.10;20.15;;;;;;;3.34;78.39;99130.03;1671322;84;26739;-76
2021/01/22 00:31:30;;;;;;;36.00;20.25;;;;;;;3.36;78.38;99129.91;1688574;83;25946;-78
2021/01/22 00:33:56;;;;;;;38.63;20.50;;;;;;;3.36;78.35;99132.97;1677347;84;25791;-77
2021/01/22 00:36:22;;;;;;;32.75;20.90;;;;;;;3.39;78.47;99130.08;1696415;82;26587;-77
2021/01/22 00:38:49;;;;;;;34.55;21.23;;;;;;;3.38;78.40;99132.31;1692705;83;26756;-77
2021/01/22 00:41:16;;;;;;;36.50;21.33;;;;;;;3.35;78.32;99126.97;1713032;81;26623;-77
2021/01/22 00:43:43;;;;;;;38.28;21.37;;;;;;;3.31;78.36;99121.78;1721517;82;25873;-77
2021/01/22 00:46:09;;;;;;;38.28;22.95;;;;;;;3.28;78.31;99124.67;1709013;83;25925;-78
2021/01/22 00:48:35;;;;;;;34.30;19.70;;;;;;;3.22;78.34;99120.91;1706259;81;25868;-78
2021/01/22 00:51:03;;;;;;;37.73;21.65;;;;;;;3.20;78.41;99120.24;1724727;82;25938;-78
2021/01/22 00:53:29;;;;;;;38.33;22.32;;;;;;;3.19;78.46;99116.05;1725670;81;25960;-77
2021/01/22 00:55:57;;;;;;;42.80;22.10;;;;;;;3.21;78.47;99112.02;1703480;82;38597;-77
2021/01/22 00:58:28;;;;;;;38.67;21.48;;;;;;;3.17;78.31;99110.22;1714925;81;26151;-77
2021/01/22 01:01:02;;;;;;;41.18;23.95;;;;;;;3.01;78.21;99094.10;1721108;82;25868;-77
2021/01/22 01:03:30;;;;;;;48.60;26.65;;;;;;;3.08;78.12;99114.95;1737102;80;26376;-77
2021/01/22 01:05:57;;;;;;;51.48;30.08;;;;;;;2.93;78.12;99093.22;1760025;80;26335;-77
2021/01/22 01:08:24;;;;;;;52.08;30.57;;;;;;;3.00;78.24;99110.55;1758939;79;26315;-77
2021/01/22 01:10:52;;;;;;;52.97;30.57;;;;;;;2.98;78.23;99109.89;1756501;79;26588;-77
2021/01/22 01:13:26;;;;;;;54.45;31.27;;;;;;;2.96;78.27;99108.41;1757980;79;25936;-77
2021/01/22 01:16:03;;;;;;;53.75;30.40;;;;;;;2.93;78.33;99112.09;1729636;82;25948;-78
2021/01/22 01:18:29;;;;;;;55.30;32.05;;;;;;;2.91;78.39;99105.45;1720077;81;25495;-77
2021/01/22 01:20:56;;;;;;;60.15;33.33;;;;;;;2.87;78.38;99114.78;1721023;82;25854;-77
2021/01/22 01:23:22;;;;;;;53.30;30.10;;;;;;;2.74;78.37;99079.98;1719812;81;25713;-76
2021/01/22 01:25:48;;;;;;;53.15;31.05;;;;;;;2.81;78.37;99103.77;1720427;83;25746;-77
2021/01/22 01:28:15;;;;;;;51.25;29.65;;;;;;;2.75;78.38;99095.78;1737199;80;26703;-76
2021/01/22 01:30:41;;;;;;;51.53;29.42;;;;;;;2.72;78.46;99101.23;1760368;80;25931;-77
2021/01/22 01:33:08;;;;;;;53.98;32.00;;;;;;;2.65;78.35;99094.57;1759735;79;25735;-77
2021/01/22 01:35:34;;;;;;;49.40;30.43;;;;;;;2.59;78.52;99089.52;1759635;80;26715;-78
2021/01/22 01:38:01;;;;;;;47.75;30.10;;;;;;;2.61;78.62;99089.35;1758881;79;25893;-77
2021/01/22 01:40:28;;;;;;;49.13;28.57;;;;;;;2.58;78.64;99092.22;1759087;79;25698;-78
2021/01/22 01:42:54;;;;;;;49.00;29.27;;;;;;;2.57;78.79;99088.84;1758950;79;25883;-77
2021/01/22 01:45:20;;;;;;;51.23;28.80;;;;;;;2.56;79.15;99089.78;1760002;80;26427;-77
2021/01/22 01:47:47;;;;;;;45.70;28.38;;;;;;;2.56;79.15;99089.78;1759225;79;25961;-77
2021/01/22 01:50:14;;;;;;;47.45;29.20;;;;;;;2.45;79.06;99086.12;1759866;79;26362;-78
2021/01/22 01:52:41;;;;;;;51.10;30.40;;;;;;;2.45;79.06;99086.12;1760532;80;27147;-77
2021/01/22 01:55:08;;;;;;;44.27;28.70;;;;;;;2.32;78.96;99068.88;1759588;80;25806;-77
2021/01/22 01:57:35;;;;;;;41.10;26.55;;;;;;;2.40;79.05;99093.02;1759383;79;26456;-77
2021/01/22 02:00:06;;;;;;;50.08;29.92;;;;;;;2.38;79.26;99079.93;1736870;79;25683;-78
2021/01/22 02:02:33;;;;;;;51.40;29.82;;;;;;;2.38;79.26;99079.93;1783601;78;25927;-78
2021/01/22 02:04:59;;;;;;;47.90;28.60;;;;;;;2.23;79.01;99057.19;1784923;78;26213;-77
2021/01/22 02:07:26;;;;;;;49.50;29.70;;;;;;;2.37;79.16;99084.28;1786147;80;25814;-77
2021/01/22 02:09:52;;;;;;;50.73;30.82;;;;;;;2.39;79.29;99069.94;1729726;81;25797;-78
2021/01/22 02:12:19;;;;;;;49.88;30.37;;;;;;;2.41;79.30;99072.70;1730967;81;25817;-77
2021/01/22 02:14:47;;;;;;;54.77;32.10;;;;;;;2.40;79.33;99067.69;1724233;81;25943;-78
2021/01/22 02:17:14;;;;;;;50.38;30.75;;;;;;;2.42;79.42;99067.06;1776295;80;25727;-78
2021/01/22 02:19:58;;;;;;;50.23;31.40;;;;;;;2.40;79.33;99056.91;1749239;80;25903;-78
2021/01/22 02:22:25;;;;;;;54.63;31.75;;;;;;;2.39;79.42;99054.47;1763691;79;25881;-77
2021/01/22 02:24:53;;;;;;;49.38;28.07;;;;;;;2.40;79.45;99049.19;1789704;78;25847;-79
2021/01/22 02:27:20;;;;;;;45.30;29.12;;;;;;;2.41;79.40;99043.55;1790982;79;25793;-77
2021/01/22 02:29:47;;;;;;;52.85;30.60;;;;;;;2.42;79.44;99047.25;1771400;79;29796;-77
2021/01/22 02:32:14;;;;;;;47.55;28.95;;;;;;;2.40;79.42;99045.31;1766885;78;25806;-77
2021/01/22 02:34:44;;;;;;;49.63;30.35;;;;;;;2.43;79.46;99039.06;1790516;78;25738;-77
2021/01/22 02:37:15;;;;;;;50.28;31.15;;;;;;;2.44;79.50;99036.80;1790572;79;25909;-77
2021/01/22 02:39:50;;;;;;;49.70;29.45;;;;;;;2.39;79.53;99038.52;1789586;78;26480;-77
2021/01/22 02:42:17;;;;;;;45.30;29.35;;;;;;;2.39;79.53;99038.52;1788800;78;25864;-77
2021/01/22 02:44:44;;;;;;;53.10;30.55;;;;;;;2.37;79.47;99043.03;1790393;79;26504;-77
2021/01/22 02:47:14;;;;;;;49.85;31.17;;;;;;;2.37;79.54;99054.63;1790998;79;25844;-77
2021/01/22 02:49:41;;;;;;;50.40;28.00;;;;;;;2.33;79.66;99049.41;1763302;79;26333;-78
2021/01/22 02:52:08;;;;;;;51.30;29.37;;;;;;;2.33;79.66;99049.41;1789629;78;25791;-77
2021/01/22 02:54:35;;;;;;;47.83;29.65;;;;;;;2.30;79.50;99048.42;1789769;79;25673;-77
2021/01/22 02:57:06;;;;;;;50.58;29.85;;;;;;;2.30;79.50;99048.42;1789557;79;25756;-77
2021/01/22 02:59:44;;;;;;;49.48;30.17;;;;;;;2.35;79.67;99044.12;1790440;78;25896;-78
2021/01/22 03:02:40;;;;;;;48.00;29.52;;;;;;;2.27;79.55;99010.53;1770434;79;25914;-77
2021/01/22 03:05:10;;;;;;;52.00;31.77;;;;;;;2.27;79.55;99010.53;1695942;82;25723;-78
2021/01/22 03:07:47;;;;;;;53.10;33.38;;;;;;;2.39;79.55;99034.65;1722682;82;26593;-77
2021/01/22 03:10:20;;;;;;;53.30;33.10;;;;;;;2.39;79.58;99020.47;1719203;81;26301;-77
2021/01/22 03:12:52;;;;;;;58.13;33.83;;;;;;;2.39;79.58;99020.47;1762414;80;25946;-77
2021/01/22 03:15:21;;;;;;;51.65;31.20;;;;;;;2.35;79.53;99009.32;1765307;80;25499;-78
2021/01/22 03:17:47;;;;;;;58.83;30.80;;;;;;;2.30;79.52;99005.08;1735816;81;25738;-77
2021/01/22 03:20:16;;;;;;;55.75;30.92;;;;;;;2.20;79.44;98985.80;1685236;83;25828;-77
2021/01/22 03:22:43;;;;;;;52.05;30.65;;;;;;;2.29;79.70;98998.28;1723055;81;26456;-77
2021/01/22 03:25:10;;;;;;;53.60;32.90;;;;;;;2.31;79.75;98987.36;1763873;80;26359;-77
2021/01/22 03:27:36;;;;;;;52.08;32.33;;;;;;;2.21;79.99;98966.33;1764438;79;25594;-76
2021/01/22 03:30:05;;;;;;;57.48;32.08;;;;;;;2.21;79.99;98966.33;1765566;80;25518;-79
2021/01/22 03:32:32;;;;;;;55.60;33.55;;;;;;;2.34;79.72;98986.57;1762394;80;25735;-78
2021/01/22 03:34:58;;;;;;;54.93;33.30;;;;;;;2.32;79.69;98980.77;1695774;83;26291;-77
2021/01/22 03:37:25;;;;;;;59.53;33.70;;;;;;;2.30;79.71;98973.66;1765071;80;26526;-77
2021/01/22 03:39:51;;;;;;;50.80;32.98;;;;;;;2.28;79.74;98968.31;1761642;80;25822;-77
2021/01/22 03:42:17;;;;;;;48.60;29.72;;;;;;;2.24;79.77;98970.38;1763361;80;25797;-78
2021/01/22 03:44:44;;;;;;;48.35;29.82;;;;;;;2.22;79.79;98973.58;1763316;80;25836;-77
2021/01/22 03:47:10;;;;;;;47.35;29.42;;;;;;;2.20;79.82;98972.91;1764240;81;25742;-77
2021/01/22 03:49:36;;;;;;;51.50;30.95;;;;;;;2.00;79.80;98937.44;1763908;79;25834;-77
2021/01/22 03:52:03;;;;;;;43.60;29.18;;;;;;;2.19;79.83;98964.37;1764830;80;25755;-78
2021/01/22 03:54:29;;;;;;;50.43;31.07;;;;;;;2.20;79.88;98960.02;1764816;80;25860;-77
2021/01/22 03:56:57;;;;;;;52.60;31.30;;;;;;;2.21;79.91;98961.66;1760664;80;26025;-77
2021/01/22 03:59:23;;;;;;;54.20;30.68;;;;;;;2.20;79.83;98954.86;1695378;82;25963;-77
2021/01/22 04:01:49;;;;;;;49.93;30.08;;;;;;;2.15;79.86;98956.58;1742081;80;25781;-77
2021/01/22 04:04:15;;;;;;;53.63;30.57;;;;;;;2.11;79.87;98956.55;1784676;78;26207;-77
2021/01/22 04:06:42;;;;;;;55.48;30.55;;;;;;;2.12;80.10;98950.92;1783014;78;25756;-78
2021/01/22 04:09:08;;;;;;;51.30;28.25;;;;;;;2.12;80.10;98950.92;1774179;78;26264;-79
2021/01/22 04:11:34;;;;;;;44.13;29.18;;;;;;;2.13;80.09;98949.98;1760974;80;26639;-78
2021/01/22 04:14:01;;;;;;;45.55;27.40;;;;;;;2.15;80.09;98945.47;1784254;79;26055;-77
2021/01/22 04:16:27;;;;;;;41.08;27.55;;;;;;;2.17;80.10;98947.42;1777209;80;25827;-77
2021/01/22 04:18:53;;;;;;;44.45;27.95;;;;;;;2.17;80.01;98937.92;1693281;83;25953;-77
2021/01/22 04:21:20;;;;;;;48.02;29.67;;;;;;;2.18;80.00;98936.15;1755300;79;25879;-79
2021/01/22 04:23:46;;;;;;;40.33;27.90;;;;;;;2.16;79.96;98938.09;1762800;80;25788;-78
2021/01/22 04:26:12;;;;;;;45.50;28.17;;;;;;;2.16;80.03;98934.22;1781959;80;25868;-79
2021/01/22 04:28:38;;;;;;;49.95;29.30;;;;;;;2.17;80.03;98930.67;1784142;78;25859;-77
2021/01/22 04:31:05;;;;;;;50.08;27.27;;;;;;;2.15;79.80;98926.94;1756576;78;25960;-77
2021/01/22 04:33:31;;;;;;;39.90;25.37;;;;;;;2.16;79.95;98925.20;1782819;78;26477;-78
2021/01/22 04:35:58;;;;;;;43.73;25.95;;;;;;;2.17;79.99;98921.66;1784163;78;25698;-77
2021/01/22 04:38:25;;;;;;;39.85;24.55;;;;;;;2.07;79.86;98900.29;1780567;79;25826;-78
2021/01/22 04:40:51;;;;;;;41.58;25.52;;;;;;;2.15;79.90;98918.41;1780997;79;25902;-78
2021/01/22 04:43:17;;;;;;;43.95;26.23;;;;;;;2.15;79.98;98915.83;1784058;78;25820;-78
2021/01/22 04:45:44;;;;;;;45.43;26.65;;;;;;;2.08;79.92;98893.71;1783578;78;26479;-77
2021/01/22 04:48:11;;;;;;;45.50;26.97;;;;;;;2.17;79.95;98905.70;1784774;78;25975;-76
2021/01/22 04:50:40;;;;;;;49.08;28.30;;;;;;;2.17;80.00;98911.34;1779784;79;25870;-77
2021/01/22 04:53:11;;;;;;;38.55;25.68;;;;;;;2.15;80.07;98905.52;1772504;80;25936;-78
2021/01/22 04:55:41;;;;;;;40.23;24.60;;;;;;;2.11;79.86;98910.65;1769154;80;25717;-77
2021/01/22 04:58:10;;;;;;;36.08;22.45;;;;;;;2.11;80.00;98910.16;1766647;78;26047;-78
2021/01/22 05:00:38;;;;;;;41.58;22.17;;;;;;;2.11;79.98;98901.63;1756639;79;26132;-77
2021/01/22 05:03:05;;;;;;;37.00;22.05;;;;;;;2.15;80.09;98904.23;1782373;79;26400;-78
2021/01/22 05:05:31;;;;;;;40.70;21.60;;;;;;;2.19;80.11;98893.97;1782699;79;25938;-77
2021/01/22 05:07:58;;;;;;;38.50;22.42;;;;;;;2.20;80.09;98889.94;1784633;80;25764;-76
2021/01/22 05:10:24;;;;;;;37.30;22.65;;;;;;;2.25;80.08;98886.93;1782276;78;25704;-76
2021/01/22 05:12:50;;;;;;;37.98;22.10;;;;;;;2.27;80.05;98877.77;1759032;80;26480;-77
2021/01/22 05:15:24;;;;;;;36.98;20.85;;;;;;;2.25;79.90;98867.59;1782756;78;25824;-79
2021/01/22 05:17:58;;;;;;;36.05;21.10;;;;;;;2.25;79.90;98861.16;1780344;79;25921;-78
2021/01/22 05:20:35;;;;;;;34.80;20.68;;;;;;;2.22;80.04;98859.68;1783548;78;25922;-78
2021/01/22 05:23:10;;;;;;;32.48;19.95;;;;;;;2.23;79.99;98863.06;1783720;79;25656;-79
2021/01/22 05:26:02;;;;;;;31.07;18.87;;;;;;;2.04;80.26;98849.86;1756779;80;25849;-79
2021/01/22 05:28:42;;;;;;;31.68;19.07;;;;;;;2.04;80.26;98849.86;1749800;80;25781;-79
2021/01/22 05:31:11;;;;;;;36.55;19.92;;;;;;;2.17;80.03;98877.36;1720591;81;26617;-79
2021/01/22 05:33:39;;;;;;;30.65;18.40;;;;;;;2.18;80.25;98881.57;1724212;81;25806;-78
2021/01/22 05:36:29;;;;;;;29.00;17.20;;;;;;;2.28;80.37;98884.53;1733871;81;26370;-78
2021/01/22 05:39:04;;;;;;;30.05;18.52;;;;;;;2.35;80.26;98882.52;1733471;80;25500;-78
2021/01/22 05:41:27;;;;;;;30.97;17.98;;;;;;;2.38;80.31;98876.25;1726526;81;26479;-78
2021/01/22 05:43:54;;;;;;;27.17;17.90;;;;;;;2.47;80.33;98892.10;1722281;82;25868;-78
2021/01/22 05:46:24;;;;;;;32.58;18.40;;;;;;;2.47;80.33;98892.10;1754036;80;25282;-78
2021/01/22 05:49:14;;;;;;;33.25;18.95;;;;;;;2.48;80.44;98887.27;1752164;80;26692;-78
2021/01/22 05:51:41;;;;;;;;;;;;;;;2.49;80.48;98883.75;1673770;83;25910;-79
2021/01/22 05:54:08;;;;;;;30.15;17.62;;;;;;;2.52;80.54;98889.89;1681334;83;25902;-78
2021/01/22 05:56:34;;;;;;;25.00;16.62;;;;;;;2.52;80.51;98879.58;1680197;83;25846;-79
2021/01/22 05:59:18;;;;;;;31.82;17.52;;;;;;;2.59;80.22;98875.90;1680627;83;26097;-79
2021/01/22 06:01:42;;;;;;;30.70;17.90;;;;;;;2.59;80.22;98875.90;1679397;83;26754;-79
2021/01/22 06:04:09;;;;;;;28.27;16.23;;;;;;;2.64;80.45;98890.45;1689312;83;26381;-80
2021/01/22 06:06:35;;;;;;;26.95;17.35;;;;;;;2.67;80.41;98883.70;1689519;83;25919;-81
2021/01/22 06:09:02;;;;;;;29.72;16.87;;;;;;;2.70;80.36;98882.13;1688334;83;25882;-79
2021/01/22 06:11:32;;;;;;;30.65;16.70;;;;;;;2.73;80.41;98884.41;1688676;83;25966;-79
2021/01/22 06:14:05;;;;;;;28.15;17.48;;;;;;;2.76;80.29;98889.26;1688752;83;25913;-79
2021/01/22 06:16:32;;;;;;;28.05;17.50;;;;;;;2.78;80.33;98886.51;1687789;83;25608;-79
2021/01/22 06:19:03;;;;;;;27.30;16.85;;;;;;;2.81;80.38;98890.91;1691194;83;25642;-78
2021/01/22 06:22:01;;;;;;;27.73;17.95;;;;;;;2.83;80.41;98883.00;1689392;83;25572;-78
2021/01/22 06:24:27;;;;;;;30.90;16.50;;;;;;;2.76;80.27;98867.33;1688355;83;26220;-78
2021/01/22 06:26:56;;;;;;;25.00;16.37;;;;;;;2.82;80.24;98874.94;1687836;83;25859;-79
2021/01/22 06:29:24;;;;;;;23.70;14.73;;;;;;;2.82;80.26;98870.58;1690039;83;26192;-78
2021/01/22 06:31:52;;;;;;;25.32;14.53;;;;;;;2.81;80.21;98874.13;1688588;84;25730;-78
2021/01/22 06:34:21;;;;;;;26.25;15.53;;;;;;;2.74;80.28;98855.05;1689303;83;25516;-79
2021/01/22 06:36:48;;;;;;;26.60;15.50;;;;;;;2.91;80.33;98878.38;1691333;83;25855;-79
2021/01/22 06:39:15;;;;;;;23.85;15.48;;;;;;;2.95;80.38;98872.77;1690129;83;26543;-78
2021/01/22 06:41:41;;;;;;;27.77;15.98;;;;;;;3.01;80.28;98873.92;1670897;84;25708;-78
2021/01/22 06:44:08;;;;;;;25.57;14.87;;;;;;;3.05;80.16;98888.92;1688071;83;26580;-78
2021/01/22 06:46:34;;;;;;;24.90;16.20;;;;;;;2.94;80.26;98871.13;1688887;83;25840;-77
2021/01/22 06:49:04;;;;;;;27.82;16.15;;;;;;;2.94;80.26;98871.13;1720482;80;25853;-79
2021/01/22 06:51:35;;;;;;;27.70;17.17;;;;;;;3.08;80.20;98891.23;1748909;79;26444;-78
2021/01/22 06:54:16;;;;;;;25.72;16.15;;;;;;;3.11;80.16;98891.41;1763337;79;25967;-78
2021/01/22 06:57:00;;;;;;;25.20;15.53;;;;;;;3.13;80.09;98891.23;1734971;80;26052;-78
2021/01/22 06:59:37;;;;;;;24.12;13.88;;;;;;;3.12;80.06;98893.02;1763800;79;26008;-78
2021/01/22 07:02:24;;;;;;;25.12;14.30;;;;;;;3.10;79.96;98888.48;1760154;79;26076;-77
2021/01/22 07:04:51;;;;;;;25.52;14.55;;;;;;;3.09;79.98;98888.16;1746790;80;26396;-77
2021/01/22 07:07:22;;;;;;;22.73;15.63;;;;;;;3.11;79.61;98881.88;1745198;80;25880;-76
2021/01/22 07:09:50;;;;;;;23.12;13.98;;;;;;;3.11;79.61;98881.88;1681470;82;25834;-75
2021/01/22 07:12:39;;;;;;;22.45;14.40;;;;;;;3.15;80.00;98878.98;1686373;83;25890;-76
2021/01/22 07:15:25;;;;;;;24.67;15.25;;;;;;;3.20;79.99;98875.47;1686122;83;25984;-76
2021/01/22 07:18:00;;;;;;;24.50;15.43;;;;;;;3.20;79.91;98872.40;1743955;80;26687;-78
2021/01/22 07:20:31;;;;;;;25.90;15.55;;;;;;;3.20;79.86;98875.47;1745006;80;25869;-77
2021/01/22 07:23:01;;;;;;;27.32;15.55;;;;;;;3.19;79.93;98865.63;1747346;80;26397;-76
2021/01/22 07:25:37;;;;;;;21.65;14.45;;;;;;;3.18;80.14;98854.95;1748348;80;25553;-76
2021/01/22 07:28:17;;;;;;;25.80;14.78;;;;;;;3.17;79.88;98854.64;1705213;82;25509;-78
2021/01/22 07:30:44;;;;;;;22.62;13.40;;;;;;;3.18;80.08;98856.25;1672478;84;25992;-76
2021/01/22 07:33:31;;;;;;;21.65;12.98;;;;;;;3.19;80.11;98842.39;1722199;81;25812;-75
2021/01/22 07:36:14;;;;;;;22.58;14.18;;;;;;;3.21;80.14;98844.80;1714844;81;25444;-75
2021/01/22 07:38:42;;;;;;;22.90;13.40;;;;;;;3.23;80.16;98834.65;1722984;81;25586;-78
2021/01/22 07:41:10;;;;;;;23.00;13.58;;;;;;;3.30;80.23;98827.08;1721115;81;25327;-78
2021/01/22 07:43:37;;;;;;;22.37;13.35;;;;;;;3.30;80.23;98827.08;1722439;81;25816;-77
2021/01/22 07:46:12;;;;;;;20.32;13.50;;;;;;;3.33;80.09;98828.08;1720711;81;26481;-77
2021/01/22 07:48:40;;;;;;;21.85;13.32;;;;;;;3.37;80.10;98824.70;1693108;83;26457;-77
2021/01/22 07:51:39;;;;;;;21.80;13.28;;;;;;;3.43;80.21;98819.70;1693306;83;25803;-76
2021/01/22 07:54:04;;;;;;;22.48;13.28;;;;;;;3.48;80.13;98818.75;1699515;83;26325;-78
2021/01/22 07:56:39;;;;;;;22.85;15.13;;;;;;;3.51;80.07;98830.05;1694069;84;25798;-77
2021/01/22 07:59:07;;;;;;;23.87;14.78;;;;;;;3.53;80.15;98829.42;1715874;81;26422;-78
2021/01/22 08:01:36;;;;;;;27.98;14.18;;;;;;;3.60;80.24;98826.20;1676794;83;25951;-78
2021/01/22 08:04:03;;;;;;;27.05;15.30;;;;;;;3.63;80.19;98816.83;1672761;83;25559;-78
2021/01/22 08:06:47;;;;;;;25.62;14.53;;;;;;;3.66;80.20;98814.77;1693704;83;25957;-79
2021/01/22 08:09:14;;;;;;;22.50;15.53;;;;;;;3.70;80.21;98811.37;1706805;81;25670;-77
2021/01/22 08:11:41;;;;;;;26.80;15.58;;;;;;;3.74;80.29;98808.80;1742286;80;26180;-77
2021/01/22 08:14:08;;;;;;;26.62;15.15;;;;;;;3.80;80.25;98804.77;1764945;79;25804;-78
2021/01/22 08:16:37;;;;;;;25.17;14.87;;;;;;;3.86;80.31;98804.13;1760975;79;26598;-78
2021/01/22 08:19:05;;;;;;;23.42;13.35;;;;;;;3.93;80.20;98807.20;1716058;80;26291;-78
2021/01/22 08:21:37;;;;;;;20.30;12.70;;;;;;;3.98;80.16;98801.08;1735321;80;26557;-77
2021/01/22 08:24:10;;;;;;;20.37;13.05;;;;;;;4.05;80.14;98803.00;1765094;79;25726;-77
2021/01/22 08:26:37;;;;;;;23.75;12.90;;;;;;;4.11;79.97;98803.16;1765353;79;26617;-77
2021/01/22 08:29:05;;;;;;;20.88;12.23;;;;;;;4.16;79.91;98794.92;1763786;79;26333;-77
2021/01/22 08:31:40;;;;;;;21.37;13.88;;;;;;;4.21;79.85;98798.63;1764432;79;26547;-77
2021/01/22 08:34:07;;;;;;;20.48;13.78;;;;;;;4.26;79.84;98799.94;1737243;79;25719;-77
2021/01/22 08:36:37;;;;;;;22.55;13.72;;;;;;;4.28;79.73;98789.72;1735598;80;26364;-77
2021/01/22 08:39:04;;;;;;;21.25;12.63;;;;;;;4.32;79.75;98788.44;1692924;83;25554;-78
2021/01/22 08:41:30;;;;;;;21.82;12.90;;;;;;;4.35;79.77;98789.41;1764201;79;25885;-76
2021/01/22 08:43:57;;;;;;;19.12;12.35;;;;;;;4.36;79.61;98785.83;1736481;80;25828;-77
2021/01/22 08:46:24;;;;;;;22.65;12.53;;;;;;;4.39;79.64;98782.11;1736074;80;26450;-78
2021/01/22 08:48:51;;;;;;;19.92;13.10;;;;;;;4.41;79.62;98781.47;1765087;79;26364;-78
2021/01/22 08:51:30;;;;;;;19.52;11.68;;;;;;;4.44;79.57;98775.97;1766490;79;25615;-78
2021/01/22 08:53:58;;;;;;;20.60;12.90;;;;;;;4.42;79.45;98787.78;1766214;79;25477;-75
2021/01/22 08:56:24;;;;;;;19.23;11.90;;;;;;;4.44;79.47;98793.58;1766097;79;26263;-78
2021/01/22 08:59:06;;;;;;;19.70;12.15;;;;;;;4.48;79.41;98781.64;1765341;79;26268;-78
2021/01/22 09:01:57;;;;;;;20.08;12.00;;;;;;;4.53;79.50;98781.46;1739403;80;25574;-79
2021/01/22 09:04:34;;;;;;;17.17;11.38;;;;;;;4.61;79.52;98776.73;1739471;80;25564;-78
2021/01/22 09:07:03;;;;;;;20.88;12.82;;;;;;;4.67;79.40;98776.89;1739725;80;25997;-77
2021/01/22 09:09:47;;;;;;;19.27;12.53;;;;;;;4.72;79.34;98775.56;1769137;79;33271;-76
2021/01/22 09:12:33;;;;;;;19.42;11.55;;;;;;;4.77;79.42;98779.77;1769750;79;25641;-77
2021/01/22 09:15:08;;;;;;;20.10;12.05;;;;;;;4.84;79.43;98773.76;1768585;79;25850;-78
2021/01/22 09:17:44;;;;;;;17.92;12.23;;;;;;;4.91;79.36;98775.20;1739826;82;26023;-78
2021/01/22 09:20:20;;;;;;;21.55;13.68;;;;;;;4.96;79.34;98766.91;1738805;80;25637;-78
2021/01/22 09:22:55;;;;;;;21.02;13.45;;;;;;;4.99;79.19;98757.05;1770964;79;25734;-77
2021/01/22 09:25:26;;;;;;;18.82;12.93;;;;;;;5.01;79.17;98752.98;1770921;79;25721;-78
2021/01/22 09:27:55;;;;;;;18.92;12.47;;;;;;;5.01;78.99;98755.08;1770155;79;25899;-79
2021/01/22 09:30:27;;;;;;;19.85;11.83;;;;;;;5.05;79.01;98747.80;1770946;79;25484;-77
2021/01/22 09:32:59;;;;;;;18.23;11.63;;;;;;;5.06;78.93;98745.02;1767547;79;25579;-76
2021/01/22 09:35:29;;;;;;;18.32;11.30;;;;;;;5.13;79.07;98741.28;1712452;81;25785;-77
2021/01/22 09:37:57;;;;;;;20.12;13.00;;;;;;;5.22;78.96;98742.04;1713263;81;26754;-77
2021/01/22 09:40:24;;;;;;;19.80;13.08;;;;;;;5.30;78.99;98738.11;1716171;81;25581;-78
2021/01/22 09:42:52;;;;;;;22.42;14.20;;;;;;;5.37;78.93;98735.13;1715369;81;25756;-76
2021/01/22 09:45:19;;;;;;;18.87;12.18;;;;;;;5.39;78.67;98725.41;1713839;81;25967;-77
2021/01/22 09:47:45;;;;;;;19.80;13.20;;;;;;;5.41;78.69;98732.53;1714702;82;26163;-78
2021/01/22 09:50:16;;;;;;;22.27;14.03;;;;;;;5.42;78.59;98734.13;1708728;81;25845;-80
2021/01/22 09:52:43;;;;;;;22.00;13.32;;;;;;;5.43;78.51;98727.16;1712684;81;26474;-79
2021/01/22 09:55:14;;;;;;;22.82;13.58;;;;;;;5.43;78.46;98721.52;1715151;81;26534;-78
2021/01/22 09:57:41;;;;;;;19.17;12.45;;;;;;;5.45;78.54;98714.34;1716542;81;25502;-77
2021/01/22 10:00:10;;;;;;;18.48;12.55;;;;;;;5.46;78.38;98712.59;1711833;81;25893;-79
2021/01/22 10:02:36;;;;;;;21.68;13.08;;;;;;;5.50;78.46;98710.75;1715817;81;25931;-79
2021/01/22 10:05:07;;;;;;;21.70;12.85;;;;;;;5.59;78.62;98708.91;1710584;81;25720;-79
2021/01/22 10:07:34;;;;;;;19.70;11.80;;;;;;;5.69;78.58;98703.49;1661254;84;26291;-79
2021/01/22 10:10:00;;;;;;;18.73;12.15;;;;;;;5.79;78.46;98691.91;1661166;84;25902;-78
2021/01/22 10:12:27;;;;;;;20.17;13.22;;;;;;;5.89;78.13;98690.84;1643575;86;26739;-78
2021/01/22 10:14:53;;;;;;;25.55;13.20;;;;;;;5.94;78.02;98692.45;1636160;84;26519;-78
2021/01/22 10:17:23;;;;;;;20.37;13.72;;;;;;;5.95;77.93;98687.09;1658659;84;25405;-80
2021/01/22 10:19:49;;;;;;;;;;;;;;;5.99;77.82;98683.65;1663648;84;26689;-78
2021/01/22 10:22:16;;;;;;;21.80;12.77;;;;;;;6.02;77.78;98683.30;1658038;84;25884;-78
2021/01/22 10:24:42;;;;;;;20.00;13.10;;;;;;;6.00;77.63;98689.14;1659545;84;25878;-78
2021/01/22 10:27:09;;;;;;;18.45;12.98;;;;;;;6.03;77.90;98681.50;1659270;84;26424;-78
2021/01/22 10:29:36;;;;;;;18.90;13.25;;;;;;;6.09;77.88;98677.72;1657627;84;26024;-78
2021/01/22 10:32:02;;;;;;;21.15;13.30;;;;;;;6.14;77.91;98679.30;1668722;83;25891;-78
2021/01/22 10:34:29;;;;;;;20.75;13.22;;;;;;;6.21;77.93;98681.97;1687979;83;25750;-77
2021/01/22 10:36:55;;;;;;;19.27;11.80;;;;;;;6.22;77.70;98671.92;1639304;84;25845;-77
2021/01/22 10:39:21;;;;;;;22.52;12.75;;;;;;;6.26;77.53;98672.36;1642570;85;26554;-77
2021/01/22 10:41:47;;;;;;;21.37;12.63;;;;;;;6.28;77.62;98666.02;1649791;85;26126;-79
2021/01/22 10:44:14;;;;;;;19.30;12.53;;;;;;;6.34;77.53;98659.30;1608494;86;25865;-79
2021/01/22 10:46:40;;;;;;;20.68;13.78;;;;;;;6.36;77.27;98645.66;1640383;85;25862;-77
2021/01/22 10:49:06;;;;;;;21.05;12.43;;;;;;;6.42;77.36;98647.03;1613597;86;26362;-79
2021/01/22 10:51:32;;;;;;;20.88;13.18;;;;;;;6.44;77.21;98646.37;1617042;86;25840;-80
2021/01/22 10:53:59;;;;;;;22.75;12.45;;;;;;;6.48;77.31;98644.70;1616348;87;25813;-79
2021/01/22 10:56:25;;;;;;;25.12;14.05;;;;;;;6.51;77.27;98641.74;1603213;87;25800;-78
2021/01/22 10:58:52;;;;;;;20.45;13.00;;;;;;;6.51;77.13;98641.74;1629376;86;26452;-80
2021/01/22 11:01:19;;;;;;;23.75;14.33;;;;;;;6.49;77.12;98635.42;1638353;85;26004;-79
2021/01/22 11:03:46;;;;;;;18.32;12.15;;;;;;;6.49;77.01;98638.52;1651106;82;25906;-78
2021/01/22 11:06:12;;;;;;;21.00;13.13;;;;;;;6.45;76.83;98640.67;1720673;81;25831;-80
2021/01/22 11:08:38;;;;;;;18.02;12.88;;;;;;;6.42;76.89;98639.74;1752708;80;25990;-78
2021/01/22 11:11:04;;;;;;;18.25;12.93;;;;;;;6.41;77.07;98624.67;1712967;81;26571;-77
2021/01/22 11:13:31;;;;;;;18.62;10.98;;;;;;;6.43;77.07;98617.48;1782084;79;26046;-77
2021/01/22 11:15:57;;;;;;;18.57;12.25;;;;;;;6.45;76.92;98627.70;1784437;79;26428;-77
2021/01/22 11:18:24;;;;;;;20.15;12.43;;;;;;;6.44;76.89;98633.39;1782156;78;25850;-76
2021/01/22 11:20:50;;;;;;;21.10;12.25;;;;;;;6.45;76.89;98627.20;1781296;78;25797;-78
2021/01/22 11:23:17;;;;;;;21.07;12.63;;;;;;;6.51;77.00;98623.58;1780566;78;25854;-77
2021/01/22 11:25:43;;;;;;;21.65;12.88;;;;;;;6.58;77.00;98620.08;1749404;80;25865;-78
2021/01/22 11:28:10;;;;;;;22.40;13.15;;;;;;;6.66;76.94;98622.56;1747209;80;25739;-78
2021/01/22 11:30:36;;;;;;;20.10;12.93;;;;;;;6.74;76.87;98620.36;1752244;80;25977;-78
2021/01/22 11:33:02;;;;;;;18.48;12.70;;;;;;;6.83;76.74;98617.95;1754277;80;26321;-79
2021/01/22 11:35:31;;;;;;;20.95;13.68;;;;;;;6.86;76.53;98614.98;1752786;80;25745;-79
2021/01/22 11:37:57;;;;;;;27.80;14.45;;;;;;;6.88;76.56;98614.80;1752795;80;26070;-79